Terminal Aerodrome Forecast
Issued by NWS

Home | Current Version | Previous Version | Text Only | Print | Product List | Glossary Off
Versions: 1 2 3 4 5 6 7 8 9 10 11 12 13 14 15 16 17 18 19 20 21

000
FTUS43 KFGF 181700
TAFBJI
TAF
KBJI 181720Z 1818/1918 19005KT P6SM VCSH BKN015
     FM181900 VRB04KT P6SM VCTS BKN020CB
      TEMPO 1820/1823 -TSRA
     FM190200 33003KT P6SM BKN025=

USA.gov is the U.S. government's official web portal to all federal, state and local government web resources and services.